Time;durP1;ratioP1;P1;durP2;ratioP2;P2;SDS_P1;SDS_P2;PMS_P1;PMS_P2;Temp;Humidity;BMP_temperature;BMP_pressure;BME280_temperature;BME280_humidity;BME280_pressure;Samples;Min_cycle;Max_cycle;Signal;HPM_P1;HPM_P2
2023/07/16 00:01:48;;;;;;;;;;;;;;;;;;5077860;27;89038;-73
2023/07/16 00:04:13;;;;;;;;;;;;;;;;;;5084401;27;90408;-72
2023/07/16 00:06:38;;;;;;;;;;;;;;;;;;5083382;27;90186;-74
2023/07/16 00:09:03;;;;;;;;;;;;;;;;;;5079769;27;89569;-73
2023/07/16 00:11:29;;;;;;;;;;;;;;;;;;5078606;27;90101;-73
2023/07/16 00:13:54;;;;;;;;;;;;;;;;;;5079186;27;89461;-73
2023/07/16 00:16:19;;;;;;;;;;;;;;;;;;5081200;27;89040;-73
2023/07/16 00:18:44;;;;;;;;;;;;;;;;;;5073439;27;89375;-73
2023/07/16 00:21:09;;;;;;;;;;;;;;;;;;5089798;27;89209;-73
2023/07/16 00:23:35;;;;;;;;;;;;;;;;;;5078552;27;89399;-73
2023/07/16 00:26:00;;;;;;;;;;;;;;;;;;5083446;27;89472;-73
2023/07/16 00:28:25;;;;;;;;;;;;;;;;;;5082185;27;89506;-73
2023/07/16 00:30:51;;;;;;;;;;;;;;;;;;5079142;27;89457;-73
2023/07/16 00:33:16;;;;;;;;;;;;;;;;;;5077824;27;90599;-73
2023/07/16 00:35:49;;;;;;;;;;;;;;;;;;5080575;27;89067;-73
2023/07/16 00:38:14;;;;;;;;;;;;;;;;;;5079569;27;91007;-74
2023/07/16 00:40:39;;;;;;;;;;;;;;;;;;5077421;27;89322;-72
2023/07/16 00:43:04;;;;;;;;;;;;;;;;;;5084077;27;89742;-73
2023/07/16 00:45:30;;;;;;;;;;;;;;;;;;5077039;27;89556;-73
2023/07/16 00:47:55;;;;;;;;;;;;;;;;;;5078468;27;89834;-73
2023/07/16 00:50:20;;;;;;;;;;;;;;;;;;5085377;27;89513;-73
2023/07/16 00:52:46;;;;;;;;;;;;;;;;;;5080265;27;90348;-73
2023/07/16 00:55:11;;;;;;;;;;;;;;;;;;5083163;27;89120;-73
2023/07/16 00:57:38;;;;;;;;;;;;;;;;;;5078407;27;89489;-73
2023/07/16 01:00:03;;;;;;;;;;;;;;;;;;5075406;27;89138;-73
2023/07/16 01:02:28;;;;;;;;;;;;;;;;;;5071293;27;89878;-73
2023/07/16 01:04:54;;;;;;;;;;;;;;;;;;5084242;27;90162;-74
2023/07/16 01:07:21;;;;;;;;;;;;;;;;;;5076816;27;89531;-74
2023/07/16 01:09:46;;;;;;;;;;;;;;;;;;5073383;27;89802;-74
2023/07/16 01:12:12;;;;;;;;;;;;;;;;;;5081047;27;89766;-74
2023/07/16 01:14:38;;;;;;;;;;;;;;;;;;5078093;27;89927;-73
2023/07/16 01:17:06;;;;;;;;;;;;;;;;;;5073898;27;89667;-73
2023/07/16 01:19:35;;;;;;;;;;;;;;;;;;5081055;27;89297;-73
2023/07/16 01:22:02;;;;;;;;;;;;;;;;;;5082687;27;89075;-73
2023/07/16 01:24:28;;;;;;;;;;;;;;;;;;5072721;27;90206;-73
2023/07/16 01:27:04;;;;;;;;;;;;;;;;;;5081606;27;90194;-73
2023/07/16 01:29:32;;;;;;;;;;;;;;;;;;5075298;27;90081;-73
2023/07/16 01:31:59;;;;;;;;;;;;;;;;;;5076598;27;89680;-73
2023/07/16 01:34:26;;;;;;;;;;;;;;;;;;5082139;27;89170;-72
2023/07/16 01:36:52;;;;;;;;;;;;;;;;;;5077716;27;89663;-74
2023/07/16 01:39:17;;;;;;;;;;;;;;;;;;5082956;27;89582;-73
2023/07/16 01:41:42;;;;;;;;;;;;;;;;;;5081171;27;89320;-73
2023/07/16 01:44:07;;;;;;;;;;;;;;;;;;5078990;27;89571;-73
2023/07/16 01:46:33;;;;;;;;;;;;;;;;;;5082933;27;89378;-73
2023/07/16 01:48:58;;;;;;;;;;;;;;;;;;5079616;27;90825;-73
2023/07/16 01:51:23;;;;;;;;;;;;;;;;;;5080500;27;89382;-73
2023/07/16 01:53:48;;;;;;;;;;;;;;;;;;5076912;27;89575;-74
2023/07/16 01:56:14;;;;;;;;;;;;;;;;;;5078743;27;89765;-72
2023/07/16 01:58:39;;;;;;;;;;;;;;;;;;5079116;27;89702;-73
2023/07/16 02:01:04;;;;;;;;;;;;;;;;;;5080338;27;90230;-73
2023/07/16 02:03:29;;;;;;;;;;;;;;;;;;5080470;27;89519;-74
2023/07/16 02:05:54;;;;;;;;;;;;;;;;;;5079266;27;90236;-73
2023/07/16 02:08:20;;;;;;;;;;;;;;;;;;5082190;27;89130;-74
2023/07/16 02:10:47;;;;;;;;;;;;;;;;;;5080305;27;88979;-73
2023/07/16 02:13:12;;;;;;;;;;;;;;;;;;5070282;27;89137;-73
2023/07/16 02:15:37;;;;;;;;;;;;;;;;;;5078374;27;89080;-74
2023/07/16 02:18:04;;;;;;;;;;;;;;;;;;5082154;27;89186;-74
2023/07/16 02:20:29;;;;;;;;;;;;;;;;;;5071995;27;89309;-73
2023/07/16 02:22:54;;;;;;;;;;;;;;;;;;5074007;27;89547;-73
2023/07/16 02:25:19;;;;;;;;;;;;;;;;;;5081998;27;89648;-73
2023/07/16 02:27:44;;;;;;;;;;;;;;;;;;5075833;27;89624;-73
2023/07/16 02:30:10;;;;;;;;;;;;;;;;;;5072995;27;92013;-73
2023/07/16 02:32:35;;;;;;;;;;;;;;;;;;5079437;27;90452;-73
2023/07/16 02:35:01;;;;;;;;;;;;;;;;;;5077017;27;90309;-73
2023/07/16 02:37:26;;;;;;;;;;;;;;;;;;5074873;27;89592;-73
2023/07/16 02:39:51;;;;;;;;;;;;;;;;;;5079557;27;89185;-73
2023/07/16 02:42:16;;;;;;;;;;;;;;;;;;5079687;27;89465;-73
2023/07/16 02:44:44;;;;;;;;;;;;;;;;;;5073353;27;89451;-74
2023/07/16 02:47:09;;;;;;;;;;;;;;;;;;5078537;27;89524;-74
2023/07/16 02:49:34;;;;;;;;;;;;;;;;;;5078804;27;89698;-73
2023/07/16 02:52:00;;;;;;;;;;;;;;;;;;5079397;27;89733;-73
2023/07/16 02:54:25;;;;;;;;;;;;;;;;;;5082756;27;89395;-73
2023/07/16 02:56:50;;;;;;;;;;;;;;;;;;5075206;27;89481;-73
2023/07/16 02:59:15;;;;;;;;;;;;;;;;;;5079902;27;89017;-73
2023/07/16 03:01:40;;;;;;;;;;;;;;;;;;5078202;27;89931;-73
2023/07/16 03:04:06;;;;;;;;;;;;;;;;;;5075252;27;89494;-73
2023/07/16 03:06:31;;;;;;;;;;;;;;;;;;5077598;27;89181;-73
2023/07/16 03:08:56;;;;;;;;;;;;;;;;;;5084182;27;89617;-73
2023/07/16 03:11:22;;;;;;;;;;;;;;;;;;5084831;27;89003;-74
2023/07/16 03:13:47;;;;;;;;;;;;;;;;;;5084820;27;89107;-73
2023/07/16 03:16:12;;;;;;;;;;;;;;;;;;5082540;27;90146;-74
2023/07/16 03:18:37;;;;;;;;;;;;;;;;;;5085409;27;89716;-73
2023/07/16 03:21:03;;;;;;;;;;;;;;;;;;5083398;27;89903;-73
2023/07/16 03:23:28;;;;;;;;;;;;;;;;;;5082277;27;89324;-74
2023/07/16 03:25:53;;;;;;;;;;;;;;;;;;5079973;27;89536;-73
2023/07/16 03:28:18;;;;;;;;;;;;;;;;;;5082441;27;90883;-73
2023/07/16 03:30:47;;;;;;;;;;;;;;;;;;5074528;27;88974;-73
2023/07/16 03:33:12;;;;;;;;;;;;;;;;;;5077413;27;89903;-72
2023/07/16 03:35:38;;;;;;;;;;;;;;;;;;5084125;27;90032;-74
2023/07/16 03:38:03;;;;;;;;;;;;;;;;;;5082463;27;89630;-73
2023/07/16 03:40:28;;;;;;;;;;;;;;;;;;5083961;27;89556;-73
2023/07/16 03:42:53;;;;;;;;;;;;;;;;;;5077779;27;89639;-74
2023/07/16 03:45:19;;;;;;;;;;;;;;;;;;5086478;27;89730;-74
2023/07/16 03:47:45;;;;;;;;;;;;;;;;;;5081607;27;90973;-73
2023/07/16 03:50:10;;;;;;;;;;;;;;;;;;5081425;27;89042;-75
2023/07/16 03:52:35;;;;;;;;;;;;;;;;;;5083021;27;89599;-74
2023/07/16 03:55:00;;;;;;;;;;;;;;;;;;5083870;27;89647;-75
2023/07/16 03:57:27;;;;;;;;;;;;;;;;;;5080298;27;89006;-74
2023/07/16 03:59:53;;;;;;;;;;;;;;;;;;5081329;27;90275;-75
2023/07/16 04:02:18;;;;;;;;;;;;;;;;;;5082889;27;90170;-74
2023/07/16 04:04:43;;;;;;;;;;;;;;;;;;5080173;27;89757;-74
2023/07/16 04:07:08;;;;;;;;;;;;;;;;;;5076242;27;89531;-74
2023/07/16 04:09:36;;;;;;;;;;;;;;;;;;5075027;27;88975;-74
2023/07/16 04:12:01;;;;;;;;;;;;;;;;;;5073574;27;89236;-74
2023/07/16 04:14:27;;;;;;;;;;;;;;;;;;5080421;27;89616;-74
2023/07/16 04:16:52;;;;;;;;;;;;;;;;;;5084329;27;89288;-74
2023/07/16 04:19:17;;;;;;;;;;;;;;;;;;5078261;27;89476;-73
2023/07/16 04:21:42;;;;;;;;;;;;;;;;;;5081457;27;89687;-74
2023/07/16 04:24:08;;;;;;;;;;;;;;;;;;5080943;27;89081;-74
2023/07/16 04:26:33;;;;;;;;;;;;;;;;;;5078734;27;89128;-75
2023/07/16 04:28:58;;;;;;;;;;;;;;;;;;5074822;27;90582;-75
2023/07/16 04:31:24;;;;;;;;;;;;;;;;;;5085803;27;89385;-74
2023/07/16 04:33:49;;;;;;;;;;;;;;;;;;5079163;27;92181;-74
2023/07/16 04:36:15;;;;;;;;;;;;;;;;;;5078898;27;91753;-74
2023/07/16 04:38:40;;;;;;;;;;;;;;;;;;5077743;27;89527;-71
2023/07/16 04:41:05;;;;;;;;;;;;;;;;;;5080765;27;89295;-74
2023/07/16 04:43:30;;;;;;;;;;;;;;;;;;5083982;27;90096;-74
2023/07/16 04:45:55;;;;;;;;;;;;;;;;;;5083248;27;89905;-75
2023/07/16 04:48:21;;;;;;;;;;;;;;;;;;5080766;27;89788;-74
2023/07/16 04:50:46;;;;;;;;;;;;;;;;;;5077888;27;89802;-75
2023/07/16 04:53:11;;;;;;;;;;;;;;;;;;5083854;27;89818;-73
2023/07/16 04:55:37;;;;;;;;;;;;;;;;;;5077774;27;90433;-74
2023/07/16 04:58:02;;;;;;;;;;;;;;;;;;5077589;27;88986;-75
2023/07/16 05:00:27;;;;;;;;;;;;;;;;;;5085470;27;89720;-74
2023/07/16 05:02:52;;;;;;;;;;;;;;;;;;5075958;27;89568;-73
2023/07/16 05:05:17;;;;;;;;;;;;;;;;;;5077420;27;92311;-73
2023/07/16 05:07:43;;;;;;;;;;;;;;;;;;5071957;27;89813;-74
2023/07/16 05:10:08;;;;;;;;;;;;;;;;;;5077283;27;89102;-73
2023/07/16 05:12:33;;;;;;;;;;;;;;;;;;5079484;27;90026;-73
2023/07/16 05:14:59;;;;;;;;;;;;;;;;;;5081091;27;89438;-73
2023/07/16 05:17:24;;;;;;;;;;;;;;;;;;5074957;27;89907;-73
2023/07/16 05:19:49;;;;;;;;;;;;;;;;;;5084332;27;89339;-74
2023/07/16 05:22:14;;;;;;;;;;;;;;;;;;5081821;27;89503;-75
2023/07/16 05:24:39;;;;;;;;;;;;;;;;;;5078660;27;89466;-74
2023/07/16 05:27:05;;;;;;;;;;;;;;;;;;5076815;27;90224;-74
2023/07/16 05:29:30;;;;;;;;;;;;;;;;;;5079541;27;89842;-75
2023/07/16 05:31:55;;;;;;;;;;;;;;;;;;5080078;27;89291;-75
2023/07/16 05:34:21;;;;;;;;;;;;;;;;;;5077870;27;89591;-74
2023/07/16 05:36:46;;;;;;;;;;;;;;;;;;5078327;27;89933;-73
2023/07/16 05:39:14;;;;;;;;;;;;;;;;;;5075191;27;90073;-74
2023/07/16 05:41:40;;;;;;;;;;;;;;;;;;5077799;27;89165;-74
2023/07/16 05:44:06;;;;;;;;;;;;;;;;;;5079787;27;89080;-75
2023/07/16 05:46:32;;;;;;;;;;;;;;;;;;5076402;27;89262;-74
2023/07/16 05:48:57;;;;;;;;;;;;;;;;;;5081524;27;89348;-74
2023/07/16 05:51:23;;;;;;;;;;;;;;;;;;5072291;27;90473;-78
2023/07/16 05:53:48;;;;;;;;;;;;;;;;;;5076245;27;89553;-78
2023/07/16 05:56:13;;;;;;;;;;;;;;;;;;5084123;27;89213;-74
2023/07/16 05:58:39;;;;;;;;;;;;;;;;;;5076307;27;89452;-78
2023/07/16 06:01:05;;;;;;;;;;;;;;;;;;5079069;27;89141;-78
2023/07/16 06:03:30;;;;;;;;;;;;;;;;;;5082511;27;89109;-78
2023/07/16 06:05:55;;;;;;;;;;;;;;;;;;5077404;27;89410;-77
2023/07/16 06:08:20;;;;;;;;;;;;;;;;;;5070867;27;89457;-74
2023/07/16 06:10:45;;;;;;;;;;;;;;;;;;5079338;27;90502;-77
2023/07/16 06:13:11;;;;;;;;;;;;;;;;;;5080900;27;89479;-77
2023/07/16 06:15:36;;;;;;;;;;;;;;;;;;5070927;27;89452;-73
2023/07/16 06:18:01;;;;;;;;;;;;;;;;;;5076382;27;89431;-74
2023/07/16 06:20:27;;;;;;;;;;;;;;;;;;5081210;27;89640;-73
2023/07/16 06:22:52;;;;;;;;;;;;;;;;;;5077730;27;89526;-75
2023/07/16 06:25:17;;;;;;;;;;;;;;;;;;5079100;27;90087;-77
2023/07/16 06:27:42;;;;;;;;;;;;;;;;;;5076022;27;90027;-79
2023/07/16 06:30:07;;;;;;;;;;;;;;;;;;5079005;27;89682;-76
2023/07/16 06:32:33;;;;;;;;;;;;;;;;;;5078355;27;90137;-78
2023/07/16 06:34:58;;;;;;;;;;;;;;;;;;5078674;27;89048;-78
2023/07/16 06:37:23;;;;;;;;;;;;;;;;;;5074866;27;90876;-78
2023/07/16 06:39:49;;;;;;;;;;;;;;;;;;5075908;27;90180;-78
2023/07/16 06:42:14;;;;;;;;;;;;;;;;;;5082505;27;89849;-76
2023/07/16 06:44:39;;;;;;;;;;;;;;;;;;5077451;27;90865;-79
2023/07/16 06:47:04;;;;;;;;;;;;;;;;;;5086316;27;90012;-78
2023/07/16 06:49:30;;;;;;;;;;;;;;;;;;5083831;27;89841;-78
2023/07/16 06:51:55;;;;;;;;;;;;;;;;;;5077493;27;89355;-79
2023/07/16 06:54:21;;;;;;;;;;;;;;;;;;5081560;27;88999;-76
2023/07/16 06:56:46;;;;;;;;;;;;;;;;;;5078827;27;89743;-77
2023/07/16 06:59:11;;;;;;;;;;;;;;;;;;5080830;27;89300;-79
2023/07/16 07:01:36;;;;;;;;;;;;;;;;;;5078491;27;89020;-77
2023/07/16 07:04:01;;;;;;;;;;;;;;;;;;5079371;27;89659;-79
2023/07/16 07:06:27;;;;;;;;;;;;;;;;;;5085405;27;89299;-78
2023/07/16 07:08:52;;;;;;;;;;;;;;;;;;5080667;27;89398;-79
2023/07/16 07:11:17;;;;;;;;;;;;;;;;;;5077554;27;89978;-79
2023/07/16 07:13:43;;;;;;;;;;;;;;;;;;5083795;27;89077;-77
2023/07/16 07:16:08;;;;;;;;;;;;;;;;;;5081703;27;89450;-77
2023/07/16 07:18:33;;;;;;;;;;;;;;;;;;5073447;27;89497;-74
2023/07/16 07:20:58;;;;;;;;;;;;;;;;;;5081313;27;89529;-75
2023/07/16 07:23:24;;;;;;;;;;;;;;;;;;5082109;27;89190;-77
2023/07/16 07:25:50;;;;;;;;;;;;;;;;;;5074530;27;90101;-78
2023/07/16 07:28:16;;;;;;;;;;;;;;;;;;5076177;27;90824;-76
2023/07/16 07:30:41;;;;;;;;;;;;;;;;;;5082015;27;90136;-77
2023/07/16 07:33:06;;;;;;;;;;;;;;;;;;5084857;27;89254;-77
2023/07/16 07:35:31;;;;;;;;;;;;;;;;;;5077252;27;89508;-78
2023/07/16 07:37:56;;;;;;;;;;;;;;;;;;5080028;27;89455;-79
2023/07/16 07:40:22;;;;;;;;;;;;;;;;;;5082465;27;89700;-78
2023/07/16 07:42:47;;;;;;;;;;;;;;;;;;5080194;27;89765;-77
2023/07/16 07:45:12;;;;;;;;;;;;;;;;;;5079383;27;90147;-79
2023/07/16 07:47:37;;;;;;;;;;;;;;;;;;5083732;27;90436;-76
2023/07/16 07:50:03;;;;;;;;;;;;;;;;;;5080002;27;89399;-77
2023/07/16 07:52:28;;;;;;;;;;;;;;;;;;5086373;27;90239;-76
2023/07/16 07:54:53;;;;;;;;;;;;;;;;;;5081132;27;89687;-75
2023/07/16 07:57:19;;;;;;;;;;;;;;;;;;5079125;27;90009;-76
2023/07/16 07:59:45;;;;;;;;;;;;;;;;;;5081136;27;89081;-78
2023/07/16 08:02:10;;;;;;;;;;;;;;;;;;5079933;27;89542;-79
2023/07/16 08:04:35;;;;;;;;;;;;;;;;;;5078786;27;89873;-77
2023/07/16 08:07:00;;;;;;;;;;;;;;;;;;5082799;27;89621;-76
2023/07/16 08:09:26;;;;;;;;;;;;;;;;;;5076520;27;90017;-78
2023/07/16 08:11:51;;;;;;;;;;;;;;;;;;5079040;27;89226;-77
2023/07/16 08:14:17;;;;;;;;;;;;;;;;;;5085471;27;89041;-78
2023/07/16 08:16:42;;;;;;;;;;;;;;;;;;5081271;27;89498;-78
2023/07/16 08:19:08;;;;;;;;;;;;;;;;;;5075671;27;89644;-77
2023/07/16 08:21:33;;;;;;;;;;;;;;;;;;5082953;27;89779;-78
2023/07/16 08:23:58;;;;;;;;;;;;;;;;;;5085025;27;89368;-78
2023/07/16 08:26:23;;;;;;;;;;;;;;;;;;5076301;27;89662;-76
2023/07/16 08:28:49;;;;;;;;;;;;;;;;;;5073491;27;89609;-78
2023/07/16 08:31:14;;;;;;;;;;;;;;;;;;5078330;27;90622;-76
2023/07/16 08:33:39;;;;;;;;;;;;;;;;;;5084064;27;89147;-75
2023/07/16 08:36:05;;;;;;;;;;;;;;;;;;5081751;27;89417;-76
2023/07/16 08:38:30;;;;;;;;;;;;;;;;;;5077753;27;89410;-78
2023/07/16 08:40:55;;;;;;;;;;;;;;;;;;5079637;27;89398;-78
2023/07/16 08:43:21;;;;;;;;;;;;;;;;;;5082278;27;89360;-79
2023/07/16 08:45:48;;;;;;;;;;;;;;;;;;5075728;27;89684;-80
2023/07/16 08:48:13;;;;;;;;;;;;;;;;;;5080892;27;91084;-79
2023/07/16 08:50:41;;;;;;;;;;;;;;;;;;5080006;27;90251;-77
2023/07/16 08:53:07;;;;;;;;;;;;;;;;;;5079760;27;89520;-78
2023/07/16 08:55:33;;;;;;;;;;;;;;;;;;5079704;27;90704;-78
2023/07/16 08:57:58;;;;;;;;;;;;;;;;;;5083735;27;89569;-75
2023/07/16 09:00:25;;;;;;;;;;;;;;;;;;5076316;27;90571;-78
2023/07/16 09:02:51;;;;;;;;;;;;;;;;;;5078585;27;89528;-77
2023/07/16 09:05:19;;;;;;;;;;;;;;;;;;5077459;27;89896;-77
2023/07/16 09:07:44;;;;;;;;;;;;;;;;;;5077105;27;89593;-75
2023/07/16 09:10:11;;;;;;;;;;;;;;;;;;5084610;27;91896;-77
2023/07/16 09:12:41;;;;;;;;;;;;;;;;;;5073531;27;89126;-79
2023/07/16 09:15:06;;;;;;;;;;;;;;;;;;5076597;27;89846;-78
2023/07/16 09:17:31;;;;;;;;;;;;;;;;;;5086991;27;89286;-79
2023/07/16 09:19:57;;;;;;;;;;;;;;;;;;5078594;27;89895;-78
2023/07/16 09:22:22;;;;;;;;;;;;;;;;;;5071171;27;89908;-78
2023/07/16 09:24:47;;;;;;;;;;;;;;;;;;5084548;27;89288;-76
2023/07/16 09:27:13;;;;;;;;;;;;;;;;;;5082481;27;89424;-77
2023/07/16 09:29:39;;;;;;;;;;;;;;;;;;5079151;27;90625;-77
2023/07/16 09:32:07;;;;;;;;;;;;;;;;;;5076828;27;89109;-78
2023/07/16 09:34:32;;;;;;;;;;;;;;;;;;5079864;27;91244;-79
2023/07/16 09:36:58;;;;;;;;;;;;;;;;;;5079811;27;89067;-77
2023/07/16 09:39:24;;;;;;;;;;;;;;;;;;5083878;27;89513;-77
2023/07/16 09:41:50;;;;;;;;;;;;;;;;;;5074602;27;90266;-78
2023/07/16 09:44:16;;;;;;;;;;;;;;;;;;5081599;27;89391;-76
2023/07/16 09:46:41;;;;;;;;;;;;;;;;;;5079110;27;91040;-78
2023/07/16 09:49:07;;;;;;;;;;;;;;;;;;5080687;27;89318;-79
2023/07/16 09:51:34;;;;;;;;;;;;;;;;;;5076801;27;89966;-78
2023/07/16 09:54:03;;;;;;;;;;;;;;;;;;5082185;27;89678;-79
2023/07/16 09:56:40;;;;;;;;;;;;;;;;;;5077522;27;89172;-79
2023/07/16 09:59:08;;;;;;;;;;;;;;;;;;5080737;27;89089;-77
2023/07/16 10:01:35;;;;;;;;;;;;;;;;;;5077911;27;90156;-77
2023/07/16 10:04:09;;;;;;;;;;;;;;;;;;5083037;27;89470;-78
2023/07/16 10:06:34;;;;;;;;;;;;;;;;;;5079426;27;90321;-74
2023/07/16 10:08:59;;;;;;;;;;;;;;;;;;5072839;27;89644;-76
2023/07/16 10:11:25;;;;;;;;;;;;;;;;;;5081502;27;89590;-78
2023/07/16 10:13:53;;;;;;;;;;;;;;;;;;5082711;27;89483;-75
2023/07/16 10:16:27;;;;;;;;;;;;;;;;;;5069831;27;89720;-76
2023/07/16 10:18:55;;;;;;;;;;;;;;;;;;5079080;27;89709;-76
2023/07/16 10:21:25;;;;;;;;;;;;;;;;;;5084143;27;89698;-78
2023/07/16 10:23:56;;;;;;;;;;;;;;;;;;5074821;27;89590;-78
2023/07/16 10:26:25;;;;;;;;;;;;;;;;;;5078868;27;90101;-79
2023/07/16 10:28:51;;;;;;;;;;;;;;;;;;5075661;27;89357;-76
2023/07/16 10:31:23;;;;;;;;;;;;;;;;;;5077177;27;89117;-74
2023/07/16 10:34:01;;;;;;;;;;;;;;;;;;5079010;27;90155;-78
2023/07/16 10:36:26;;;;;;;;;;;;;;;;;;5084371;27;89423;-77
2023/07/16 10:38:51;;;;;;;;;;;;;;;;;;5070495;27;89036;-75
2023/07/16 10:41:17;;;;;;;;;;;;;;;;;;5080139;27;89376;-74
2023/07/16 10:43:42;;;;;;;;;;;;;;;;;;5080496;27;89662;-74
2023/07/16 10:46:08;;;;;;;;;;;;;;;;;;5076093;27;89096;-77
2023/07/16 10:48:34;;;;;;;;;;;;;;;;;;5076586;27;89755;-77
2023/07/16 10:50:59;;;;;;;;;;;;;;;;;;5073268;27;90223;-77
2023/07/16 10:53:24;;;;;;;;;;;;;;;;;;5083156;27;89802;-77
2023/07/16 10:55:49;;;;;;;;;;;;;;;;;;5084058;27;89665;-79
2023/07/16 10:58:15;;;;;;;;;;;;;;;;;;5081179;27;89325;-79
2023/07/16 11:00:40;;;;;;;;;;;;;;;;;;5075739;27;89624;-77
2023/07/16 11:03:05;;;;;;;;;;;;;;;;;;5082218;27;89419;-75
2023/07/16 11:05:31;;;;;;;;;;;;;;;;;;5086509;27;90139;-78
2023/07/16 11:07:56;;;;;;;;;;;;;;;;;;5072423;27;89580;-79
2023/07/16 11:10:22;;;;;;;;;;;;;;;;;;5076448;27;89027;-77
2023/07/16 11:12:53;;;;;;;;;;;;;;;;;;5082810;27;89025;-76
2023/07/16 11:15:29;;;;;;;;;;;;;;;;;;5075340;27;89650;-75
2023/07/16 11:17:54;;;;;;;;;;;;;;;;;;5074544;27;90756;-77
2023/07/16 11:20:20;;;;;;;;;;;;;;;;;;5082031;27;90560;-78
2023/07/16 11:22:46;;;;;;;;;;;;;;;;;;5077597;27;89105;-78
2023/07/16 11:25:12;;;;;;;;;;;;;;;;;;5075320;27;89850;-77
2023/07/16 11:27:40;;;;;;;;;;;;;;;;;;5085454;27;90810;-78
2023/07/16 11:30:05;;;;;;;;;;;;;;;;;;5084978;27;89873;-77
2023/07/16 11:32:32;;;;;;;;;;;;;;;;;;5076293;27;91969;-79
2023/07/16 11:34:58;;;;;;;;;;;;;;;;;;5080165;27;89864;-77
2023/07/16 11:37:24;;;;;;;;;;;;;;;;;;5081491;27;90970;-77
2023/07/16 11:39:50;;;;;;;;;;;;;;;;;;5075191;27;89423;-78
2023/07/16 11:42:22;;;;;;;;;;;;;;;;;;5082646;27;92304;-77
2023/07/16 11:44:48;;;;;;;;;;;;;;;;;;5082175;27;89675;-76
2023/07/16 11:47:14;;;;;;;;;;;;;;;;;;5086875;27;89424;-75
2023/07/16 11:49:39;;;;;;;;;;;;;;;;;;5081125;27;92292;-77
2023/07/16 11:52:04;;;;;;;;;;;;;;;;;;5081908;27;89788;-77
2023/07/16 11:54:29;;;;;;;;;;;;;;;;;;5084263;27;89149;-77
2023/07/16 11:56:55;;;;;;;;;;;;;;;;;;5080545;27;89150;-77
2023/07/16 11:59:20;;;;;;;;;;;;;;;;;;5079496;27;89473;-76
2023/07/16 12:01:46;;;;;;;;;;;;;;;;;;5080024;27;89269;-77
2023/07/16 12:04:12;;;;;;;;;;;;;;;;;;5082528;27;89749;-79
2023/07/16 12:06:37;;;;;;;;;;;;;;;;;;5080847;27;91016;-78
2023/07/16 12:09:03;;;;;;;;;;;;;;;;;;5085976;27;89274;-76
2023/07/16 12:11:28;;;;;;;;;;;;;;;;;;5085564;27;91232;-76
2023/07/16 12:13:53;;;;;;;;;;;;;;;;;;5082306;27;89348;-77
2023/07/16 12:16:18;;;;;;;;;;;;;;;;;;5076978;27;89063;-74
2023/07/16 12:18:44;;;;;;;;;;;;;;;;;;5080580;27;89949;-77
2023/07/16 12:21:09;;;;;;;;;;;;;;;;;;5080215;27;89744;-77
2023/07/16 12:23:34;;;;;;;;;;;;;;;;;;5079149;27;89573;-78
2023/07/16 12:25:59;;;;;;;;;;;;;;;;;;5078986;27;89979;-78
2023/07/16 12:28:24;;;;;;;;;;;;;;;;;;5079029;27;89727;-76
2023/07/16 12:30:50;;;;;;;;;;;;;;;;;;5076316;27;89465;-78
2023/07/16 12:33:15;;;;;;;;;;;;;;;;;;5075766;27;89054;-77
2023/07/16 12:35:40;;;;;;;;;;;;;;;;;;5076521;27;89169;-79
2023/07/16 12:38:05;;;;;;;;;;;;;;;;;;5078205;27;89553;-77
2023/07/16 12:40:31;;;;;;;;;;;;;;;;;;5079346;27;89193;-76
2023/07/16 12:42:56;;;;;;;;;;;;;;;;;;5075209;27;90455;-76
2023/07/16 12:45:21;;;;;;;;;;;;;;;;;;5080219;27;89938;-76
2023/07/16 12:47:46;;;;;;;;;;;;;;;;;;5079822;27;90206;-76
2023/07/16 12:50:11;;;;;;;;;;;;;;;;;;5079790;27;90662;-78
2023/07/16 12:52:37;;;;;;;;;;;;;;;;;;5081271;27;90850;-77
2023/07/16 12:55:02;;;;;;;;;;;;;;;;;;5078464;27;90697;-77
2023/07/16 12:57:27;;;;;;;;;;;;;;;;;;5081001;27;89958;-75
2023/07/16 12:59:52;;;;;;;;;;;;;;;;;;5077544;27;89329;-77
2023/07/16 13:02:17;;;;;;;;;;;;;;;;;;5081353;27;88988;-75
2023/07/16 13:04:43;;;;;;;;;;;;;;;;;;5079871;27;90044;-79
2023/07/16 13:07:08;;;;;;;;;;;;;;;;;;5075696;27;89180;-78
2023/07/16 13:09:33;;;;;;;;;;;;;;;;;;5074961;27;89684;-78
2023/07/16 13:11:58;;;;;;;;;;;;;;;;;;5077808;27;89813;-79
2023/07/16 13:14:24;;;;;;;;;;;;;;;;;;5080991;27;89371;-75
2023/07/16 13:16:49;;;;;;;;;;;;;;;;;;5075626;27;89566;-76
2023/07/16 13:19:14;;;;;;;;;;;;;;;;;;5079716;27;89126;-75
2023/07/16 13:21:39;;;;;;;;;;;;;;;;;;5075874;27;89065;-75
2023/07/16 13:24:05;;;;;;;;;;;;;;;;;;5082005;27;89646;-76
2023/07/16 13:26:30;;;;;;;;;;;;;;;;;;5078770;27;89441;-77
2023/07/16 13:28:55;;;;;;;;;;;;;;;;;;5081299;27;89033;-75
2023/07/16 13:31:20;;;;;;;;;;;;;;;;;;5074983;27;89901;-76
2023/07/16 13:33:46;;;;;;;;;;;;;;;;;;5082088;27;89344;-78
2023/07/16 13:36:11;;;;;;;;;;;;;;;;;;5087891;27;89083;-75
2023/07/16 13:38:36;;;;;;;;;;;;;;;;;;5076540;27;89601;-78
2023/07/16 13:41:01;;;;;;;;;;;;;;;;;;5081671;27;89069;-77
2023/07/16 13:43:27;;;;;;;;;;;;;;;;;;5075439;27;91001;-77
2023/07/16 13:45:52;;;;;;;;;;;;;;;;;;5074755;27;89202;-78
2023/07/16 13:48:17;;;;;;;;;;;;;;;;;;5079726;27;89014;-75
2023/07/16 13:50:42;;;;;;;;;;;;;;;;;;5077278;27;89567;-77
2023/07/16 13:53:07;;;;;;;;;;;;;;;;;;5084647;27;89237;-75
2023/07/16 13:55:33;;;;;;;;;;;;;;;;;;5075449;27;89376;-75
2023/07/16 13:57:58;;;;;;;;;;;;;;;;;;5073366;27;90541;-75
2023/07/16 14:00:23;;;;;;;;;;;;;;;;;;5080199;27;89543;-75
2023/07/16 14:02:48;;;;;;;;;;;;;;;;;;5079981;27;89539;-78
2023/07/16 14:05:13;;;;;;;;;;;;;;;;;;5071460;27;89254;-76
2023/07/16 14:07:39;;;;;;;;;;;;;;;;;;5078080;27;89246;-77
2023/07/16 14:10:04;;;;;;;;;;;;;;;;;;5076626;27;90013;-76
2023/07/16 14:12:30;;;;;;;;;;;;;;;;;;5080617;27;90335;-78
2023/07/16 14:14:55;;;;;;;;;;;;;;;;;;5078520;27;89186;-77
2023/07/16 14:17:20;;;;;;;;;;;;;;;;;;5083701;27;89204;-78
2023/07/16 14:19:45;;;;;;;;;;;;;;;;;;5081572;27;90084;-77
2023/07/16 14:22:13;;;;;;;;;;;;;;;;;;5076497;27;90528;-76
2023/07/16 14:24:39;;;;;;;;;;;;;;;;;;5080393;27;89802;-76
2023/07/16 14:27:06;;;;;;;;;;;;;;;;;;5072435;27;89110;-78
2023/07/16 14:29:31;;;;;;;;;;;;;;;;;;5079790;27;89777;-76
2023/07/16 14:31:56;;;;;;;;;;;;;;;;;;5077350;27;89427;-76
2023/07/16 14:34:22;;;;;;;;;;;;;;;;;;5070800;27;89266;-76
2023/07/16 14:36:47;;;;;;;;;;;;;;;;;;5077816;27;89497;-79
2023/07/16 14:39:13;;;;;;;;;;;;;;;;;;5083211;27;91283;-77
2023/07/16 14:41:38;;;;;;;;;;;;;;;;;;5080354;27;89119;-75
2023/07/16 14:44:04;;;;;;;;;;;;;;;;;;5081676;27;89215;-77
2023/07/16 14:46:29;;;;;;;;;;;;;;;;;;5074677;27;89207;-79
2023/07/16 14:48:56;;;;;;;;;;;;;;;;;;5077552;27;89604;-74
2023/07/16 14:51:21;;;;;;;;;;;;;;;;;;5078729;27;89148;-79
2023/07/16 14:53:47;;;;;;;;;;;;;;;;;;5077148;27;89859;-78
2023/07/16 14:56:12;;;;;;;;;;;;;;;;;;5073963;27;89483;-78
2023/07/16 14:58:37;;;;;;;;;;;;;;;;;;5078634;27;89945;-77
2023/07/16 15:01:11;;;;;;;;;;;;;;;;;;5077170;27;90370;-78
2023/07/16 15:03:37;;;;;;;;;;;;;;;;;;5077691;27;90251;-78
2023/07/16 15:06:03;;;;;;;;;;;;;;;;;;5088281;27;89151;-78
2023/07/16 15:08:29;;;;;;;;;;;;;;;;;;5075233;27;90415;-75
2023/07/16 15:10:55;;;;;;;;;;;;;;;;;;5082432;27;90248;-78
2023/07/16 15:13:21;;;;;;;;;;;;;;;;;;5081823;27;90166;-77
2023/07/16 15:15:49;;;;;;;;;;;;;;;;;;5078147;27;89531;-77
2023/07/16 15:18:14;;;;;;;;;;;;;;;;;;5080822;27;89815;-78
2023/07/16 15:20:40;;;;;;;;;;;;;;;;;;5079178;27;91012;-77
2023/07/16 15:23:06;;;;;;;;;;;;;;;;;;5079976;27;90939;-78
2023/07/16 15:25:31;;;;;;;;;;;;;;;;;;5075693;27;89630;-77
2023/07/16 15:27:56;;;;;;;;;;;;;;;;;;5083028;27;89584;-78
2023/07/16 15:30:21;;;;;;;;;;;;;;;;;;5078818;27;89177;-78
2023/07/16 15:32:46;;;;;;;;;;;;;;;;;;5077064;27;89353;-78
2023/07/16 15:35:12;;;;;;;;;;;;;;;;;;5083430;27;89636;-75
2023/07/16 15:37:37;;;;;;;;;;;;;;;;;;5079067;27;89572;-78
2023/07/16 15:40:12;;;;;;;;;;;;;;;;;;5080423;27;89126;-78
2023/07/16 15:42:37;;;;;;;;;;;;;;;;;;5085508;27;89609;-78
2023/07/16 15:45:02;;;;;;;;;;;;;;;;;;5079860;27;89422;-77
2023/07/16 15:47:27;;;;;;;;;;;;;;;;;;5083078;27;89723;-77
2023/07/16 15:49:53;;;;;;;;;;;;;;;;;;5079940;27;90231;-78
2023/07/16 15:52:18;;;;;;;;;;;;;;;;;;5079969;27;89034;-77
2023/07/16 15:54:43;;;;;;;;;;;;;;;;;;5081760;27;89508;-76
2023/07/16 15:57:08;;;;;;;;;;;;;;;;;;5081423;27;89431;-75
2023/07/16 15:59:33;;;;;;;;;;;;;;;;;;5078205;27;89049;-79
2023/07/16 16:01:59;;;;;;;;;;;;;;;;;;5081377;27;90711;-78
2023/07/16 16:04:24;;;;;;;;;;;;;;;;;;5077110;27;89312;-77
2023/07/16 16:06:49;;;;;;;;;;;;;;;;;;5087343;27;89301;-75
2023/07/16 16:09:14;;;;;;;;;;;;;;;;;;5083292;27;89594;-76
2023/07/16 16:11:40;;;;;;;;;;;;;;;;;;5083736;27;89714;-79
2023/07/16 16:14:08;;;;;;;;;;;;;;;;;;5076904;27;89459;-78
2023/07/16 16:16:33;;;;;;;;;;;;;;;;;;5073447;27;90191;-78
2023/07/16 16:18:59;;;;;;;;;;;;;;;;;;5083367;27;89035;-79
2023/07/16 16:21:24;;;;;;;;;;;;;;;;;;5082880;27;89642;-79
2023/07/16 16:23:49;;;;;;;;;;;;;;;;;;5084225;27;89180;-78
2023/07/16 16:26:14;;;;;;;;;;;;;;;;;;5085237;27;89005;-77
2023/07/16 16:28:40;;;;;;;;;;;;;;;;;;5080751;27;89496;-77
2023/07/16 16:31:06;;;;;;;;;;;;;;;;;;5084159;27;89078;-76
2023/07/16 16:33:31;;;;;;;;;;;;;;;;;;5077210;27;92201;-78
2023/07/16 16:35:56;;;;;;;;;;;;;;;;;;5075035;27;90365;-78